Time;durP1;ratioP1;P1;durP2;ratioP2;P2;SDS_P1;SDS_P2;PMS_P1;PMS_P2;Temp;Humidity;BMP_temperature;BMP_pressure;BME280_temperature;BME280_humidity;BME280_pressure;Samples;Min_cycle;Max_cycle;Signal;HPM_P1;HPM_P2
2022/09/18 00:00:56;;;;;;;7.90;5.25;;;9.80;99.90;;;;;;5083809;28;20377;-65
2022/09/18 00:03:23;;;;;;;12.45;5.60;;;9.80;99.90;;;;;;5073567;28;20384;-65
2022/09/18 00:05:50;;;;;;;7.45;4.57;;;9.80;99.90;;;;;;5074195;28;20087;-65
2022/09/18 00:08:17;;;;;;;8.88;5.20;;;9.80;99.90;;;;;;5075688;28;20438;-66
2022/09/18 00:10:45;;;;;;;7.07;4.93;;;9.90;99.90;;;;;;5075714;28;20048;-65
2022/09/18 00:13:13;;;;;;;9.32;5.20;;;9.90;99.90;;;;;;5090229;28;20051;-65
2022/09/18 00:15:40;;;;;;;6.57;4.25;;;9.90;99.90;;;;;;5102207;28;20063;-65
2022/09/18 00:18:07;;;;;;;9.45;5.18;;;9.80;99.90;;;;;;5073727;28;20446;-65
2022/09/18 00:20:34;;;;;;;11.55;4.85;;;9.80;99.90;;;;;;5074434;28;20120;-66
2022/09/18 00:23:01;;;;;;;8.23;4.15;;;9.80;99.90;;;;;;5081229;28;20044;-66
2022/09/18 00:25:28;;;;;;;8.90;4.32;;;9.80;99.90;;;;;;5077442;28;20080;-65
2022/09/18 00:27:55;;;;;;;8.65;4.75;;;9.80;99.90;;;;;;5087892;28;20036;-65
2022/09/18 00:30:22;;;;;;;8.85;5.07;;;9.70;99.90;;;;;;5082821;28;20075;-65
2022/09/18 00:32:49;;;;;;;7.50;4.88;;;9.70;99.90;;;;;;5083976;28;20040;-65
2022/09/18 00:35:16;;;;;;;8.52;4.57;;;9.70;99.90;;;;;;5086958;28;20377;-66
2022/09/18 00:37:43;;;;;;;9.00;4.22;;;9.70;99.90;;;;;;5083290;28;20089;-65
2022/09/18 00:40:09;;;;;;;7.95;4.53;;;9.70;99.90;;;;;;5084077;28;20083;-65
2022/09/18 00:42:36;;;;;;;9.95;5.72;;;9.60;99.90;;;;;;5086072;28;20041;-65
2022/09/18 00:45:03;;;;;;;7.30;4.20;;;9.60;99.90;;;;;;5097486;28;20068;-65
2022/09/18 00:47:50;;;;;;;7.47;4.82;;;9.60;99.90;;;;;;5092873;28;20068;-65
2022/09/18 00:50:24;;;;;;;7.13;4.05;;;9.50;99.90;;;;;;5083709;28;20472;-65
2022/09/18 00:52:55;;;;;;;8.70;4.78;;;9.50;99.90;;;;;;5083262;28;20483;-66
2022/09/18 00:55:33;;;;;;;6.82;3.78;;;9.50;99.90;;;;;;5100343;28;20056;-65
2022/09/18 00:58:01;;;;;;;7.28;4.07;;;9.50;99.90;;;;;;5083031;28;20042;-67
2022/09/18 01:00:28;;;;;;;5.65;3.38;;;9.50;99.90;;;;;;5081296;28;20079;-65
2022/09/18 01:02:55;;;;;;;7.13;3.30;;;9.50;99.90;;;;;;5096163;28;20041;-65
2022/09/18 01:05:45;;;;;;;9.50;4.32;;;9.50;99.90;;;;;;5080761;28;20043;-65
2022/09/18 01:08:15;;;;;;;6.45;3.33;;;9.50;99.90;;;;;;5078877;28;20112;-65
2022/09/18 01:10:59;;;;;;;7.90;3.75;;;9.50;99.90;;;;;;5094180;28;20051;-65
2022/09/18 01:13:35;;;;;;;7.05;3.55;;;9.50;99.90;;;;;;5092867;28;20118;-65
2022/09/18 01:16:20;;;;;;;5.13;3.35;;;9.50;99.90;;;;;;5093020;28;20433;-65
2022/09/18 01:19:10;;;;;;;5.40;2.60;;;9.60;99.90;;;;;;5091413;28;20051;-65
2022/09/18 01:21:37;;;;;;;5.28;3.17;;;9.60;99.90;;;;;;5071241;28;20044;-65
2022/09/18 01:24:22;;;;;;;4.05;2.72;;;9.60;99.90;;;;;;5110000;28;20048;-65
2022/09/18 01:26:54;;;;;;;5.20;2.88;;;9.60;99.90;;;;;;5093587;28;20541;-65
2022/09/18 01:29:25;;;;;;;6.60;3.03;;;9.60;99.90;;;;;;5093911;28;20072;-65
2022/09/18 01:31:54;;;;;;;5.78;2.85;;;9.70;99.90;;;;;;5109333;28;20044;-65
2022/09/18 01:34:25;;;;;;;7.47;2.83;;;9.70;99.90;;;;;;5100209;28;20045;-65
2022/09/18 01:36:55;;;;;;;6.40;3.30;;;9.70;99.90;;;;;;5086735;28;20048;-65
2022/09/18 01:39:33;;;;;;;7.13;3.78;;;9.80;99.90;;;;;;5067369;28;20051;-65
2022/09/18 01:42:01;;;;;;;6.97;3.08;;;9.80;99.90;;;;;;5074594;28;20154;-65
2022/09/18 01:44:29;;;;;;;4.85;2.95;;;9.80;99.90;;;;;;5084730;28;20090;-65
2022/09/18 01:46:56;;;;;;;4.30;2.72;;;9.90;99.90;;;;;;5055421;28;20094;-65
2022/09/18 01:49:25;;;;;;;4.82;2.63;;;9.80;99.90;;;;;;5071289;28;20383;-65
2022/09/18 01:52:10;;;;;;;4.40;2.38;;;9.80;99.90;;;;;;5075160;28;20506;-65
2022/09/18 01:54:39;;;;;;;12.80;3.67;;;9.80;99.90;;;;;;5090279;28;20696;-65
2022/09/18 01:57:15;;;;;;;5.38;2.83;;;9.80;99.90;;;;;;5092656;28;20098;-65
2022/09/18 01:59:54;;;;;;;4.75;2.92;;;9.80;99.90;;;;;;5089200;28;20044;-65
2022/09/18 02:03:01;;;;;;;4.95;2.80;;;9.80;99.90;;;;;;5098813;28;20051;-65
2022/09/18 02:05:54;;;;;;;5.40;3.45;;;9.70;99.90;;;;;;5067315;28;20048;-65
2022/09/18 02:08:46;;;;;;;6.45;2.55;;;9.70;99.90;;;;;;5074747;28;20044;-65
2022/09/18 02:11:14;;;;;;;7.28;3.28;;;9.70;99.90;;;;;;5073358;28;20127;-66
2022/09/18 02:13:51;;;;;;;6.38;3.00;;;9.70;99.90;;;;;;5096643;28;20047;-65
2022/09/18 02:16:25;;;;;;;5.18;2.75;;;9.70;99.90;;;;;;5065836;28;20485;-65
2022/09/18 02:18:54;;;;;;;5.28;2.72;;;9.70;99.90;;;;;;5079547;28;20459;-66
2022/09/18 02:21:27;;;;;;;6.30;3.20;;;9.70;99.90;;;;;;5093607;28;20093;-67
2022/09/18 02:23:58;;;;;;;4.82;2.67;;;9.60;99.90;;;;;;5080163;28;20039;-65
2022/09/18 02:26:25;;;;;;;7.07;3.17;;;9.60;99.90;;;;;;5062802;28;20105;-65
2022/09/18 02:28:51;;;;;;;5.93;2.58;;;9.60;99.90;;;;;;5065583;28;20048;-66
2022/09/18 02:31:19;;;;;;;5.82;2.70;;;9.60;99.90;;;;;;5074803;28;20049;-65
2022/09/18 02:33:46;;;;;;;6.38;2.75;;;9.50;99.90;;;;;;5077894;28;20392;-65
2022/09/18 02:36:18;;;;;;;5.72;2.92;;;9.50;99.90;;;;;;5068469;28;20122;-67
2022/09/18 02:39:19;;;;;;;4.70;2.17;;;9.50;99.90;;;;;;5072174;28;20040;-66
2022/09/18 02:42:00;;;;;;;4.43;2.40;;;9.50;99.90;;;;;;5052666;28;20073;-65
2022/09/18 02:44:47;;;;;;;4.72;2.53;;;9.40;99.90;;;;;;5083228;28;20044;-65
2022/09/18 02:47:38;;;;;;;6.18;2.85;;;9.50;99.90;;;;;;5080485;28;20032;-65
2022/09/18 02:50:38;;;;;;;5.38;2.50;;;9.40;99.90;;;;;;5080632;28;20041;-65
2022/09/18 02:53:27;;;;;;;6.05;2.80;;;9.40;99.90;;;;;;5095337;28;20037;-65
2022/09/18 02:56:01;;;;;;;9.00;3.17;;;9.40;99.90;;;;;;5075279;28;20082;-66
2022/09/18 02:58:34;;;;;;;6.30;2.80;;;9.30;99.90;;;;;;5080073;28;20086;-66
2022/09/18 03:01:04;;;;;;;6.60;2.95;;;9.30;99.90;;;;;;5079681;28;20040;-65
2022/09/18 03:03:32;;;;;;;5.10;3.15;;;9.30;99.90;;;;;;5075551;28;20991;-65
2022/09/18 03:05:58;;;;;;;6.38;2.95;;;9.30;99.90;;;;;;5077045;28;20036;-65
2022/09/18 03:08:25;;;;;;;8.82;3.67;;;9.30;99.90;;;;;;5099950;28;20048;-65
2022/09/18 03:10:54;;;;;;;7.28;3.22;;;9.30;99.90;;;;;;5065463;28;20036;-66
2022/09/18 03:13:21;;;;;;;4.80;2.33;;;9.30;99.90;;;;;;5086992;28;20560;-66
2022/09/18 03:15:48;;;;;;;7.68;2.63;;;9.30;99.90;;;;;;5075277;28;20102;-65
2022/09/18 03:18:15;;;;;;;3.42;2.30;;;9.30;99.90;;;;;;5094129;28;20057;-66
2022/09/18 03:20:42;;;;;;;5.85;3.05;;;9.30;99.90;;;;;;5078688;28;20045;-65
2022/09/18 03:23:09;;;;;;;5.97;2.55;;;9.30;99.90;;;;;;5097963;28;20048;-65
2022/09/18 03:25:37;;;;;;;6.60;2.80;;;9.30;99.90;;;;;;5075306;28;20048;-65
2022/09/18 03:28:04;;;;;;;3.53;2.50;;;9.30;99.90;;;;;;5081223;28;20036;-65
2022/09/18 03:30:32;;;;;;;4.28;2.50;;;9.30;99.90;;;;;;5093408;28;20048;-66
2022/09/18 03:32:59;;;;;;;4.88;2.45;;;9.30;99.90;;;;;;5061663;28;20044;-65
2022/09/18 03:35:25;;;;;;;5.18;2.50;;;9.30;99.90;;;;;;5090471;28;20040;-65
2022/09/18 03:37:54;;;;;;;10.77;2.80;;;9.30;99.90;;;;;;5076929;28;20474;-65
2022/09/18 03:40:22;;;;;;;4.15;2.55;;;9.30;99.90;;;;;;5076127;28;20086;-66
2022/09/18 03:42:49;;;;;;;5.28;2.83;;;9.30;99.90;;;;;;5081038;28;20040;-65
2022/09/18 03:45:16;;;;;;;5.05;2.40;;;9.30;99.90;;;;;;5101252;28;20425;-65
2022/09/18 03:47:43;;;;;;;4.60;2.75;;;9.30;99.90;;;;;;5080816;28;20036;-66
2022/09/18 03:50:10;;;;;;;4.07;2.50;;;9.30;99.90;;;;;;5074989;28;20483;-65
2022/09/18 03:52:37;;;;;;;5.20;2.42;;;9.30;99.90;;;;;;5079347;28;20041;-66
2022/09/18 03:55:04;;;;;;;4.90;2.58;;;9.30;99.90;;;;;;5079456;28;20036;-65
2022/09/18 03:57:32;;;;;;;5.32;2.40;;;9.30;99.90;;;;;;5079122;28;20105;-66
2022/09/18 03:59:59;;;;;;;3.83;2.00;;;9.40;99.90;;;;;;5098507;28;20382;-66
2022/09/18 04:02:27;;;;;;;5.45;2.67;;;9.40;99.90;;;;;;5081529;28;20048;-66
2022/09/18 04:04:54;;;;;;;4.22;2.38;;;9.50;99.90;;;;;;5079094;28;20039;-67
2022/09/18 04:07:21;;;;;;;4.13;2.30;;;9.50;99.90;;;;;;5090412;28;20049;-66
2022/09/18 04:09:48;;;;;;;5.60;2.40;;;9.50;99.90;;;;;;5082883;28;20035;-66
2022/09/18 04:12:15;;;;;;;3.92;2.05;;;9.60;99.90;;;;;;5080959;28;20774;-66
2022/09/18 04:14:42;;;;;;;3.72;3.08;;;9.60;99.90;;;;;;5079472;28;20048;-66
2022/09/18 04:17:09;;;;;;;3.65;2.60;;;9.60;99.90;;;;;;5091306;28;20036;-66
2022/09/18 04:19:36;;;;;;;5.28;2.75;;;9.60;99.90;;;;;;5081667;28;20048;-66
2022/09/18 04:22:03;;;;;;;5.07;2.67;;;9.60;99.90;;;;;;5074894;28;20098;-66
2022/09/18 04:24:30;;;;;;;4.38;2.30;;;9.70;99.90;;;;;;5076169;28;20037;-66
2022/09/18 04:26:57;;;;;;;4.32;2.47;;;9.70;99.90;;;;;;5081034;28;20082;-66
2022/09/18 04:29:24;;;;;;;4.13;2.22;;;9.70;99.90;;;;;;5077193;28;20090;-66
2022/09/18 04:31:51;;;;;;;5.18;2.63;;;9.70;99.90;;;;;;5093966;28;20041;-66
2022/09/18 04:34:18;;;;;;;4.45;2.83;;;9.60;99.90;;;;;;5081485;28;20036;-66
2022/09/18 04:36:45;;;;;;;2.97;2.05;;;9.70;99.90;;;;;;5090291;28;20085;-67
2022/09/18 04:39:12;;;;;;;7.35;2.47;;;9.70;99.90;;;;;;5075474;28;20122;-66
2022/09/18 04:41:38;;;;;;;3.72;2.33;;;9.60;99.90;;;;;;5080744;28;20044;-65
2022/09/18 04:44:06;;;;;;;3.55;2.20;;;9.60;99.90;;;;;;5098513;28;21659;-66
2022/09/18 04:46:33;;;;;;;3.08;2.35;;;9.60;99.90;;;;;;5101910;28;20097;-66
2022/09/18 04:49:00;;;;;;;2.90;2.10;;;9.60;99.90;;;;;;5081197;28;20090;-66
2022/09/18 04:51:26;;;;;;;7.05;2.95;;;9.50;99.90;;;;;;5078163;28;20048;-66
2022/09/18 04:53:54;;;;;;;7.07;3.35;;;9.50;99.90;;;;;;5085138;28;20048;-66
2022/09/18 04:56:21;;;;;;;7.93;2.38;;;9.50;99.90;;;;;;5084216;28;20085;-65
2022/09/18 04:58:48;;;;;;;4.47;2.88;;;9.50;99.90;;;;;;5084525;28;20036;-66
2022/09/18 05:01:15;;;;;;;6.18;2.58;;;9.50;99.90;;;;;;5082912;28;20078;-66
2022/09/18 05:03:43;;;;;;;4.45;2.45;;;9.50;99.90;;;;;;5076512;28;20086;-66
2022/09/18 05:06:09;;;;;;;6.05;2.65;;;9.40;99.90;;;;;;5089945;28;20048;-66
2022/09/18 05:08:37;;;;;;;3.80;2.35;;;9.40;99.90;;;;;;5098096;28;20045;-66
2022/09/18 05:11:04;;;;;;;3.35;2.47;;;9.40;99.90;;;;;;5103039;28;20480;-66
2022/09/18 05:13:32;;;;;;;3.95;2.30;;;9.40;99.90;;;;;;5080055;28;20519;-65
2022/09/18 05:15:59;;;;;;;5.35;2.63;;;9.40;99.90;;;;;;5083944;28;20044;-66
2022/09/18 05:18:26;;;;;;;5.28;2.75;;;9.30;99.90;;;;;;5080813;28;20055;-66
2022/09/18 05:20:53;;;;;;;7.53;2.78;;;9.20;99.90;;;;;;5069980;28;20047;-66
2022/09/18 05:23:20;;;;;;;4.78;2.33;;;9.20;99.90;;;;;;5080909;28;20085;-66
2022/09/18 05:25:51;;;;;;;5.40;3.03;;;9.20;99.90;;;;;;5079438;28;20048;-66
2022/09/18 05:28:18;;;;;;;7.85;3.03;;;9.20;99.90;;;;;;5087650;28;20048;-66
2022/09/18 05:30:45;;;;;;;8.07;2.33;;;9.10;99.90;;;;;;5073863;28;20086;-66
2022/09/18 05:33:12;;;;;;;6.80;3.30;;;9.10;99.90;;;;;;5082824;28;20052;-66
2022/09/18 05:35:39;;;;;;;3.22;2.30;;;9.10;99.90;;;;;;5080023;28;20110;-66
2022/09/18 05:38:06;;;;;;;5.22;2.70;;;9.10;99.90;;;;;;5080976;28;20462;-65
2022/09/18 05:40:35;;;;;;;5.72;3.45;;;9.10;99.90;;;;;;5082984;28;20036;-66
2022/09/18 05:43:02;;;;;;;4.67;2.20;;;9.10;99.90;;;;;;5080241;28;20313;-66
2022/09/18 05:45:29;;;;;;;5.07;2.67;;;9.10;99.90;;;;;;5089209;28;20395;-65
2022/09/18 05:47:57;;;;;;;6.53;2.67;;;9.00;99.90;;;;;;5084487;28;20071;-66
2022/09/18 05:50:24;;;;;;;4.65;2.10;;;9.00;99.90;;;;;;5079998;28;20062;-67
2022/09/18 05:53:04;;;;;;;4.78;2.72;;;9.00;99.90;;;;;;5080227;28;20102;-66
2022/09/18 05:55:31;;;;;;;4.57;2.20;;;9.00;99.90;;;;;;5094256;28;20109;-66
2022/09/18 05:57:59;;;;;;;6.60;2.75;;;9.00;99.90;;;;;;5067110;28;20476;-66
2022/09/18 06:00:26;;;;;;;7.00;2.90;;;9.00;99.90;;;;;;5095501;28;20127;-66
2022/09/18 06:02:54;;;;;;;57.33;47.78;;;9.10;99.90;;;;;;5086314;28;20396;-63
2022/09/18 06:05:22;;;;;;;8.98;4.03;;;9.20;99.90;;;;;;5102260;28;20037;-66
2022/09/18 06:07:50;;;;;;;7.70;3.15;;;9.20;99.90;;;;;;5081545;28;20455;-66
2022/09/18 06:10:19;;;;;;;15.10;4.55;;;9.30;99.90;;;;;;5058441;28;20127;-65
2022/09/18 06:12:46;;;;;;;10.18;3.20;;;9.20;99.90;;;;;;5079136;28;20084;-66
2022/09/18 06:15:14;;;;;;;5.20;2.53;;;9.30;99.90;;;;;;5067931;28;20056;-66
2022/09/18 06:17:41;;;;;;;5.43;2.40;;;9.30;99.90;;;;;;5044396;28;20062;-66
2022/09/18 06:20:08;;;;;;;4.18;2.47;;;9.30;99.90;;;;;;5062665;28;20044;-66
2022/09/18 06:22:35;;;;;;;5.95;3.03;;;9.40;99.90;;;;;;5080692;28;20052;-66
2022/09/18 06:25:03;;;;;;;5.20;2.35;;;9.40;99.90;;;;;;5084221;28;20063;-66
2022/09/18 06:27:30;;;;;;;5.68;3.13;;;9.40;99.90;;;;;;5057626;28;20113;-66
2022/09/18 06:29:57;;;;;;;4.18;2.13;;;9.40;99.90;;;;;;5094778;28;20040;-66
2022/09/18 06:32:24;;;;;;;5.68;2.65;;;9.50;99.90;;;;;;5081826;28;20036;-65
2022/09/18 06:34:51;;;;;;;3.92;2.35;;;9.50;99.90;;;;;;5079811;28;20047;-66
2022/09/18 06:37:18;;;;;;;4.15;2.20;;;9.50;99.90;;;;;;5072932;28;20063;-66
2022/09/18 06:39:45;;;;;;;6.55;2.50;;;9.50;99.90;;;;;;5078461;28;20040;-66
2022/09/18 06:42:12;;;;;;;5.65;3.53;;;9.60;99.90;;;;;;5091788;28;20396;-66
2022/09/18 06:44:39;;;;;;;5.22;2.67;;;9.60;99.90;;;;;;5085936;28;20068;-66
2022/09/18 06:47:06;;;;;;;7.68;2.10;;;9.60;99.90;;;;;;5081960;28;20047;-68
2022/09/18 06:49:33;;;;;;;3.38;2.15;;;9.70;99.90;;;;;;5072266;28;20414;-66
2022/09/18 06:52:00;;;;;;;5.28;2.63;;;9.70;99.90;;;;;;5077172;28;20090;-66
2022/09/18 06:54:27;;;;;;;5.10;2.60;;;9.80;99.90;;;;;;5078211;28;20074;-66
2022/09/18 06:56:54;;;;;;;4.85;2.85;;;9.80;99.90;;;;;;5083417;28;20036;-65
2022/09/18 06:59:21;;;;;;;7.68;2.50;;;9.90;99.90;;;;;;5074573;28;20098;-66
2022/09/18 07:01:48;;;;;;;5.50;2.50;;;10.00;99.90;;;;;;5079267;28;20043;-65
2022/09/18 07:04:15;;;;;;;5.03;2.25;;;10.10;99.90;;;;;;5097531;28;20044;-66
2022/09/18 07:06:44;;;;;;;7.75;3.08;;;10.10;99.90;;;;;;5076858;28;20052;-66
2022/09/18 07:09:11;;;;;;;3.73;2.27;;;10.20;99.90;;;;;;5077452;28;20098;-66
2022/09/18 07:11:38;;;;;;;3.80;2.47;;;10.20;99.90;;;;;;5100005;28;20124;-65
2022/09/18 07:14:09;;;;;;;5.32;3.15;;;10.30;99.90;;;;;;5060705;28;20052;-66
2022/09/18 07:16:35;;;;;;;4.03;2.03;;;10.30;99.90;;;;;;5078471;28;20040;-66
2022/09/18 07:19:03;;;;;;;6.90;2.58;;;10.40;99.90;;;;;;5090616;28;20472;-66
2022/09/18 07:21:30;;;;;;;6.40;2.33;;;10.50;99.90;;;;;;5074216;28;20099;-66
2022/09/18 07:23:56;;;;;;;4.90;2.28;;;10.50;99.90;;;;;;5075316;28;20495;-66
2022/09/18 07:26:23;;;;;;;5.65;1.90;;;10.60;99.90;;;;;;5079524;28;20044;-66
2022/09/18 07:28:51;;;;;;;4.47;2.10;;;10.60;99.90;;;;;;5084407;28;20039;-66
2022/09/18 07:31:21;;;;;;;4.53;2.53;;;10.70;99.90;;;;;;5098549;28;20079;-66
2022/09/18 07:33:52;;;;;;;4.85;2.22;;;10.80;99.90;;;;;;5081927;28;20044;-66
2022/09/18 07:36:19;;;;;;;4.63;2.42;;;10.80;99.90;;;;;;5085564;28;20079;-66
2022/09/18 07:38:52;;;;;;;6.32;2.95;;;10.80;99.90;;;;;;5082566;28;20090;-66
2022/09/18 07:41:18;;;;;;;2.67;2.03;;;10.80;99.90;;;;;;5066169;28;20117;-67
2022/09/18 07:43:48;;;;;;;7.13;3.00;;;10.90;99.90;;;;;;5073460;28;20354;-66
2022/09/18 07:46:15;;;;;;;10.45;3.30;;;10.90;99.90;;;;;;5080609;28;20040;-66
2022/09/18 07:48:41;;;;;;;7.43;2.42;;;10.90;99.90;;;;;;5086627;28;20544;-66
2022/09/18 07:51:08;;;;;;;5.47;2.13;;;11.00;99.90;;;;;;5084840;28;20052;-66
2022/09/18 07:53:36;;;;;;;3.80;2.38;;;11.00;99.90;;;;;;5096603;28;20048;-66
2022/09/18 07:56:10;;;;;;;6.40;1.90;;;11.00;99.90;;;;;;5080663;28;20043;-66
2022/09/18 07:58:37;;;;;;;8.73;2.38;;;11.10;99.90;;;;;;5064856;28;20383;-66
2022/09/18 08:01:04;;;;;;;4.50;2.33;;;11.20;99.90;;;;;;5081006;28;20093;-66
2022/09/18 08:03:31;;;;;;;4.10;2.53;;;11.20;99.90;;;;;;5077158;28;20117;-66
2022/09/18 08:05:58;;;;;;;6.13;2.33;;;11.30;99.90;;;;;;5080904;28;20046;-66
2022/09/18 08:08:25;;;;;;;3.42;2.15;;;11.30;99.90;;;;;;5068800;28;20392;-66
2022/09/18 08:10:52;;;;;;;4.43;1.70;;;11.40;99.90;;;;;;5066991;28;20052;-66
2022/09/18 08:13:19;;;;;;;4.70;1.77;;;11.40;99.90;;;;;;5080941;28;20481;-66
2022/09/18 08:15:46;;;;;;;3.80;1.85;;;11.50;99.90;;;;;;5099018;28;20472;-66
2022/09/18 08:18:13;;;;;;;4.35;1.65;;;11.50;99.90;;;;;;5078206;28;20041;-66
2022/09/18 08:20:40;;;;;;;4.63;2.10;;;11.60;99.90;;;;;;5086719;28;20055;-66
2022/09/18 08:23:10;;;;;;;3.53;2.33;;;11.60;99.90;;;;;;5077874;28;20086;-66
2022/09/18 08:25:37;;;;;;;3.95;2.25;;;11.70;99.90;;;;;;5083494;28;20426;-66
2022/09/18 08:28:05;;;;;;;2.50;1.75;;;11.80;99.90;;;;;;5087934;28;20086;-66
2022/09/18 08:30:32;;;;;;;2.60;1.63;;;11.80;99.90;;;;;;5075859;28;20392;-66
2022/09/18 08:33:00;;;;;;;2.97;1.50;;;11.90;99.90;;;;;;5086250;28;20372;-66
2022/09/18 08:35:27;;;;;;;3.67;2.00;;;12.00;99.90;;;;;;5082627;28;20045;-66
2022/09/18 08:37:54;;;;;;;5.70;1.70;;;12.00;99.90;;;;;;5084415;28;20045;-66
2022/09/18 08:40:25;;;;;;;4.80;1.70;;;12.10;99.90;;;;;;5099385;28;20033;-66
2022/09/18 08:43:04;;;;;;;4.40;1.52;;;12.20;99.90;;;;;;5082637;28;20113;-66
2022/09/18 08:45:45;;;;;;;4.45;2.00;;;12.30;99.90;;;;;;5095352;28;20048;-66
2022/09/18 08:48:18;;;;;;;6.47;2.00;;;12.40;99.90;;;;;;5085754;28;20097;-66
2022/09/18 08:50:53;;;;;;;3.78;1.73;;;12.50;99.90;;;;;;5090028;28;20050;-67
2022/09/18 08:53:29;;;;;;;3.47;1.80;;;12.50;99.90;;;;;;5077823;28;20055;-66
2022/09/18 08:55:56;;;;;;;6.35;2.92;;;12.50;99.90;;;;;;5083724;28;20841;-64
2022/09/18 08:58:33;;;;;;;6.93;4.20;;;12.60;99.90;;;;;;5096224;28;20044;-64
2022/09/18 09:01:05;;;;;;;9.57;3.60;;;12.70;99.90;;;;;;5087585;28;20049;-64
2022/09/18 09:03:53;;;;;;;8.00;3.10;;;13.00;99.90;;;;;;5091208;28;20047;-67
2022/09/18 09:06:44;;;;;;;5.43;1.90;;;13.20;99.90;;;;;;5085177;28;20041;-68
2022/09/18 09:09:23;;;;;;;4.80;1.90;;;13.30;99.90;;;;;;5074801;28;20086;-65
2022/09/18 09:12:11;;;;;;;4.33;1.90;;;13.50;99.90;;;;;;5077183;28;20039;-66
2022/09/18 09:15:00;;;;;;;3.63;1.52;;;13.60;99.90;;;;;;5073607;28;20343;-66
2022/09/18 09:17:40;;;;;;;5.35;1.80;;;13.60;99.90;;;;;;5079033;28;20434;-66
2022/09/18 09:20:20;;;;;;;4.45;1.70;;;13.60;99.90;;;;;;5075544;28;20044;-66
2022/09/18 09:23:12;;;;;;;7.93;2.08;;;13.70;99.90;;;;;;5074667;28;20094;-66
2022/09/18 09:25:45;;;;;;;7.18;1.90;;;13.70;99.90;;;;;;5078112;28;20051;-65
2022/09/18 09:28:18;;;;;;;4.57;2.40;;;13.80;99.90;;;;;;5083258;28;20113;-66
2022/09/18 09:30:47;;;;;;;4.13;1.92;;;13.80;99.90;;;;;;5080030;28;20106;-66
2022/09/18 09:33:26;;;;;;;2.55;1.40;;;13.70;99.90;;;;;;5065115;28;20052;-66
2022/09/18 09:35:54;;;;;;;;;;;13.70;99.90;;;;;;5076219;28;20702;-65
2022/09/18 09:38:45;;;;;;;43.55;29.33;;;13.70;99.90;;;;;;5080259;28;19942;-69
2022/09/18 09:41:26;;;;;;;4.80;2.50;;;13.70;99.90;;;;;;5071007;28;20476;-66
2022/09/18 09:44:22;;;;;;;3.85;2.00;;;13.70;99.90;;;;;;5073477;28;20040;-66
2022/09/18 09:47:04;;;;;;;3.47;1.70;;;13.70;99.90;;;;;;5073053;28;20106;-64
2022/09/18 09:49:52;;;;;;;2.92;1.50;;;13.80;99.90;;;;;;5080646;28;20049;-66
2022/09/18 09:52:24;;;;;;;3.88;2.03;;;13.80;99.90;;;;;;5034660;28;20473;-66
2022/09/18 09:55:17;;;;;;;3.42;1.50;;;13.90;99.90;;;;;;5084937;28;20051;-65
2022/09/18 09:58:12;;;;;;;3.60;1.80;;;14.00;99.90;;;;;;5084133;28;20101;-66
2022/09/18 10:00:47;;;;;;;3.45;1.30;;;14.10;99.90;;;;;;5082376;28;20044;-66
2022/09/18 10:03:38;;;;;;;3.15;1.10;;;14.20;99.90;;;;;;5081102;28;20048;-66
2022/09/18 10:06:15;;;;;;;3.00;1.40;;;14.30;99.90;;;;;;5097372;28;20043;-65
2022/09/18 10:08:53;;;;;;;2.58;1.40;;;14.50;99.90;;;;;;5079923;28;20450;-66
2022/09/18 10:11:20;;;;;;;5.75;1.35;;;14.60;99.90;;;;;;5074481;28;20438;-65
2022/09/18 10:13:57;;;;;;;2.50;1.20;;;14.60;99.90;;;;;;5081005;28;20411;-66
2022/09/18 10:16:32;;;;;;;4.18;2.13;;;14.70;99.90;;;;;;5083615;28;20067;-66
2022/09/18 10:18:59;;;;;;;2.47;1.10;;;14.70;99.90;;;;;;5079979;28;20494;-65
2022/09/18 10:21:27;;;;;;;6.05;1.27;;;14.80;99.90;;;;;;5077064;28;20040;-66
2022/09/18 10:24:23;;;;;;;3.53;1.63;;;14.90;99.90;;;;;;5082040;28;20078;-66
2022/09/18 10:26:59;;;;;;;4.35;1.50;;;15.00;99.90;;;;;;5050908;28;20123;-66
2022/09/18 10:29:26;;;;;;;2.58;1.50;;;15.00;99.90;;;;;;5077534;28;20040;-65
2022/09/18 10:31:58;;;;;;;2.80;1.30;;;15.00;99.90;;;;;;5067335;28;20120;-65
2022/09/18 10:34:46;;;;;;;2.58;1.40;;;15.10;99.90;;;;;;5080978;28;20055;-66
2022/09/18 10:37:28;;;;;;;2.67;1.27;;;15.10;99.90;;;;;;5074289;28;20040;-71
2022/09/18 10:40:00;;;;;;;6.15;3.55;;;15.20;99.90;;;;;;5080245;28;20032;-69
2022/09/18 10:42:28;;;;;;;4.97;1.55;;;15.30;99.90;;;;;;5072493;28;20047;-60
2022/09/18 10:44:57;;;;;;;4.35;1.40;;;15.50;99.90;;;;;;5069919;28;20041;-67
2022/09/18 10:47:35;;;;;;;3.33;1.30;;;15.60;99.90;;;;;;5053874;28;20564;-67
2022/09/18 10:50:07;;;;;;;4.50;2.40;;;15.70;99.90;;;;;;5063929;28;20082;-68
2022/09/18 10:52:41;;;;;;;6.60;2.03;;;15.80;99.90;;;;;;5077152;28;20477;-69
2022/09/18 10:55:23;;;;;;;18.58;4.97;;;15.90;99.90;;;;;;5078239;28;20093;-70
2022/09/18 10:57:53;;;;;;;10.55;3.50;;;16.10;99.90;;;;;;5078514;28;20045;-69
2022/09/18 11:00:20;;;;;;;6.15;1.80;;;16.30;99.90;;;;;;5083398;28;20048;-69
2022/09/18 11:02:50;;;;;;;2.67;1.10;;;16.40;99.90;;;;;;5072644;28;20048;-69
2022/09/18 11:05:37;;;;;;;4.18;1.70;;;16.40;99.90;;;;;;5069824;28;20098;-70
2022/09/18 11:08:06;;;;;;;2.65;1.10;;;16.40;99.90;;;;;;5077485;28;20047;-70
2022/09/18 11:10:36;;;;;;;2.30;1.15;;;16.40;99.90;;;;;;5068710;28;20086;-65
2022/09/18 11:13:03;;;;;;;2.67;1.02;;;16.40;99.90;;;;;;5061008;28;20068;-65
2022/09/18 11:15:34;;;;;;;1.45;1.10;;;16.40;99.90;;;;;;5035588;28;20484;-69
2022/09/18 11:18:03;;;;;;;4.07;1.40;;;16.50;99.90;;;;;;5075714;28;20048;-67
2022/09/18 11:20:32;;;;;;;2.92;1.30;;;16.60;99.90;;;;;;5102722;28;20052;-67
2022/09/18 11:23:18;;;;;;;2.75;1.30;;;16.70;99.90;;;;;;5085590;28;20074;-66
2022/09/18 11:25:46;;;;;;;1.85;1.30;;;16.70;99.90;;;;;;5078087;28;20052;-66
2022/09/18 11:28:29;;;;;;;1.75;0.80;;;16.60;99.90;;;;;;5078591;28;20037;-66
2022/09/18 11:30:58;;;;;;;2.40;1.30;;;16.50;99.90;;;;;;5076219;28;20040;-66
2022/09/18 11:33:28;;;;;;;4.05;1.17;;;16.50;99.90;;;;;;5107893;28;20047;-66
2022/09/18 11:35:56;;;;;;;;;;;16.50;99.90;;;;;;5082377;28;20441;-67
2022/09/18 11:38:23;;;;;;;1.70;1.05;;;16.40;99.90;;;;;;5081599;28;20279;-67
2022/09/18 11:40:50;;;;;;;5.07;1.30;;;16.40;99.90;;;;;;5078655;28;20047;-67
2022/09/18 11:43:25;;;;;;;2.42;1.20;;;16.40;99.90;;;;;;5084463;28;20438;-67
2022/09/18 11:46:00;;;;;;;1.92;1.02;;;16.50;99.90;;;;;;5062064;28;20086;-67
2022/09/18 11:48:44;;;;;;;1.42;0.80;;;16.50;99.90;;;;;;5082720;28;20059;-67
2022/09/18 11:51:19;;;;;;;2.65;0.85;;;16.60;99.90;;;;;;5085300;28;20090;-67
2022/09/18 11:53:50;;;;;;;1.98;0.98;;;16.70;99.90;;;;;;5081224;28;20098;-66
2022/09/18 11:56:27;;;;;;;1.88;1.00;;;16.70;99.90;;;;;;5065342;28;20040;-66
2022/09/18 11:58:59;;;;;;;3.03;1.05;;;16.70;99.90;;;;;;5073932;28;20044;-66
2022/09/18 12:01:47;;;;;;;2.30;1.00;;;16.90;99.90;;;;;;5078398;28;20430;-66
2022/09/18 12:04:25;;;;;;;1.55;0.98;;;17.00;99.90;;;;;;5068327;28;20048;-67
2022/09/18 12:07:18;;;;;;;2.13;1.20;;;17.10;99.90;;;;;;5092972;28;20121;-67
2022/09/18 12:10:07;;;;;;;1.90;1.08;;;17.40;99.90;;;;;;5084941;28;20050;-67
2022/09/18 12:12:44;;;;;;;2.53;1.00;;;17.50;99.90;;;;;;5085177;28;20122;-67
2022/09/18 12:15:20;;;;;;;2.38;1.10;;;17.50;99.90;;;;;;5074481;28;20037;-67
2022/09/18 12:18:07;;;;;;;1.17;0.90;;;17.60;99.90;;;;;;5089535;28;20399;-67
2022/09/18 12:20:41;;;;;;;1.65;0.90;;;17.70;99.90;;;;;;5078364;28;20090;-67
2022/09/18 12:23:15;;;;;;;2.50;1.23;;;17.60;99.90;;;;;;5089798;28;20040;-66
2022/09/18 12:26:11;;;;;;;1.50;0.80;;;17.70;99.90;;;;;;5081952;28;20549;-67
2022/09/18 12:28:38;;;;;;;2.70;1.17;;;17.70;99.90;;;;;;5084612;28;20395;-66
2022/09/18 12:31:34;;;;;;;1.67;0.93;;;17.80;99.90;;;;;;5082872;28;20492;-66
2022/09/18 12:34:10;;;;;;;3.63;1.20;;;17.80;99.90;;;;;;5065747;28;20123;-66
2022/09/18 12:36:59;;;;;;;2.28;1.50;;;17.80;99.90;;;;;;5082900;28;20066;-66
2022/09/18 12:39:29;;;;;;;3.85;1.10;;;17.70;99.90;;;;;;5081597;28;20044;-66
2022/09/18 12:42:00;;;;;;;1.67;1.10;;;17.60;99.90;;;;;;5082241;28;20456;-67
2022/09/18 12:44:58;;;;;;;5.65;1.70;;;17.60;99.90;;;;;;5085031;28;20141;-65
2022/09/18 12:47:51;;;;;;;2.15;1.23;;;17.70;99.90;;;;;;5080284;28;20044;-67
2022/09/18 12:50:25;;;;;;;2.42;1.05;;;17.80;99.90;;;;;;5076722;28;20048;-67
2022/09/18 12:53:01;;;;;;;6.07;1.42;;;17.90;99.90;;;;;;5085223;28;20143;-67
2022/09/18 12:56:14;;;;;;;3.20;1.20;;;18.00;99.90;;;;;;5074505;28;20494;-66
2022/09/18 12:58:58;;;;;;;3.97;1.60;;;18.00;99.90;;;;;;5078573;28;20052;-67
2022/09/18 13:01:35;;;;;;;2.60;1.50;;;18.00;99.90;;;;;;5077505;28;20044;-64
2022/09/18 13:04:12;;;;;;;5.85;2.13;;;18.00;99.90;;;;;;5079998;28;20036;-66
2022/09/18 13:06:43;;;;;;;2.45;1.40;;;17.90;99.90;;;;;;5087505;28;20041;-66
2022/09/18 13:09:17;;;;;;;3.58;1.58;;;17.90;99.90;;;;;;5080939;28;20044;-67
2022/09/18 13:12:02;;;;;;;3.58;1.20;;;18.00;99.90;;;;;;5065135;28;20037;-67
2022/09/18 13:14:45;;;;;;;3.75;1.63;;;18.20;99.90;;;;;;5080780;28;20036;-65
2022/09/18 13:17:18;;;;;;;3.33;1.40;;;18.30;99.90;;;;;;5078967;28;20056;-65
2022/09/18 13:19:58;;;;;;;3.60;1.20;;;18.30;99.90;;;;;;5082523;28;20040;-65